createdAt,value
2023-03-28T00:00:00.877Z,85.5
2023-03-28T00:01:00.886Z,85.5
2023-03-28T00:02:00.888Z,85.5
2023-03-28T00:03:00.900Z,85.8
2023-03-28T00:04:01.647Z,85.5
2023-03-28T00:05:00.884Z,85.8
2023-03-28T00:06:01.263Z,85.8
2023-03-28T00:07:00.883Z,85.8
2023-03-28T00:08:00.867Z,85.8
2023-03-28T00:09:00.872Z,86.1
2023-03-28T00:10:00.889Z,85.8
2023-03-28T00:11:00.880Z,85.8
2023-03-28T00:12:00.892Z,85.8
2023-03-28T00:13:00.890Z,85.8
2023-03-28T00:14:01.195Z,86.1
2023-03-28T00:15:00.895Z,85.8
2023-03-28T00:16:01.386Z,85.5
2023-03-28T00:17:00.929Z,85.8
2023-03-28T00:18:00.928Z,85.8
2023-03-28T00:19:00.875Z,85.5
2023-03-28T00:20:00.881Z,85.5
2023-03-28T00:21:00.885Z,85.5
2023-03-28T00:22:00.913Z,85.2
2023-03-28T00:23:00.891Z,85.2
2023-03-28T00:24:00.896Z,85.5
2023-03-28T00:25:00.905Z,85.5
2023-03-28T00:26:01.073Z,85.5
2023-03-28T00:27:00.916Z,84.9
2023-03-28T00:28:00.910Z,85.2
2023-03-28T00:29:00.923Z,84.9
2023-03-28T00:30:00.907Z,84.9
2023-03-28T00:31:00.907Z,84.9
2023-03-28T00:32:00.940Z,84.9
2023-03-28T00:33:00.931Z,84.7
2023-03-28T00:34:00.899Z,84.9
2023-03-28T00:35:00.901Z,84.9
2023-03-28T00:36:01.197Z,84.9
2023-03-28T00:37:00.919Z,84.9
2023-03-28T00:38:00.900Z,85.2
2023-03-28T00:39:00.906Z,85.2
2023-03-28T00:40:00.918Z,85.5
2023-03-28T00:41:00.854Z,85.2
2023-03-28T00:42:00.857Z,85.2
2023-03-28T00:43:00.818Z,85.2
2023-03-28T00:44:00.830Z,85.5
2023-03-28T00:45:00.741Z,85.5
2023-03-28T00:46:09.176Z,85.5
2023-03-28T00:47:00.785Z,85.5
2023-03-28T00:48:00.669Z,85.4
2023-03-28T00:49:00.623Z,85.4
2023-03-28T00:50:00.628Z,85.4
2023-03-28T00:51:00.563Z,85.8
2023-03-28T00:52:00.565Z,85.8
2023-03-28T00:53:00.547Z,85.8
2023-03-28T00:54:00.544Z,85.7
2023-03-28T00:55:00.603Z,86
2023-03-28T00:56:00.766Z,86.1
2023-03-28T00:57:00.625Z,85.7
2023-03-28T00:58:00.563Z,86
2023-03-28T00:59:00.547Z,86
2023-03-28T01:00:00.600Z,85.7
2023-03-28T01:01:00.555Z,86
2023-03-28T01:02:00.619Z,86
2023-03-28T01:03:00.654Z,86
2023-03-28T01:04:00.589Z,86
2023-03-28T01:05:00.589Z,86
2023-03-28T01:06:00.790Z,85.9
2023-03-28T01:07:01.688Z,86
2023-03-28T01:08:00.605Z,86
2023-03-28T01:09:00.560Z,86.3
2023-03-28T01:10:00.647Z,86.3
2023-03-28T01:11:00.727Z,86.3
2023-03-28T01:12:00.613Z,86.3
2023-03-28T01:13:00.613Z,86.1
2023-03-28T01:14:00.726Z,86
2023-03-28T01:15:00.678Z,86.6
2023-03-28T01:16:00.942Z,86.3
2023-03-28T01:17:00.596Z,86
2023-03-28T01:18:00.750Z,86.3
2023-03-28T01:19:00.612Z,86.3
2023-03-28T01:20:00.645Z,86.6
2023-03-28T01:21:00.632Z,86.6
2023-03-28T01:22:00.687Z,86.6
2023-03-28T01:23:00.664Z,86.6
2023-03-28T01:24:11.854Z,86.9
2023-03-28T01:25:00.666Z,86.6
2023-03-28T01:26:00.852Z,86.6
2023-03-28T01:27:00.688Z,86.6
2023-03-28T01:28:00.725Z,86.6
2023-03-28T01:29:00.698Z,86.6
2023-03-28T01:30:00.824Z,86.6
2023-03-28T01:31:00.674Z,86.6
2023-03-28T01:32:00.673Z,86.6
2023-03-28T01:33:00.695Z,86.6
2023-03-28T01:34:00.669Z,86.6
2023-03-28T01:35:00.617Z,86.5
2023-03-28T01:36:00.973Z,86.5
2023-03-28T01:37:00.612Z,86.5
2023-03-28T01:38:00.632Z,86.5
2023-03-28T01:39:00.771Z,86.8
2023-03-28T01:40:00.766Z,86.5
2023-03-28T01:41:00.654Z,86.5
2023-03-28T01:42:00.679Z,86.8
2023-03-28T01:43:00.660Z,87.1
2023-03-28T01:44:00.637Z,86.8
2023-03-28T01:45:00.620Z,87.1
2023-03-28T01:46:00.824Z,87.1
2023-03-28T01:47:00.636Z,87.1
2023-03-28T01:48:00.624Z,87.1
2023-03-28T01:49:00.590Z,87.1
2023-03-28T01:50:00.630Z,87.1
2023-03-28T01:51:00.614Z,87.1
2023-03-28T01:52:00.614Z,87.4
2023-03-28T01:53:00.596Z,87.4
2023-03-28T01:54:00.619Z,87.4
2023-03-28T01:55:00.639Z,87.4
2023-03-28T01:56:00.773Z,87.7
2023-03-28T01:57:00.692Z,87.7
2023-03-28T01:58:00.603Z,88
2023-03-28T01:59:00.616Z,87.7
2023-03-28T02:00:00.938Z,88.3
2023-03-28T02:01:00.812Z,88.3
2023-03-28T02:02:00.827Z,88.6
2023-03-28T02:03:00.877Z,88.6
2023-03-28T02:04:00.830Z,88.9
2023-03-28T02:05:00.826Z,88.9
2023-03-28T02:06:01.038Z,88.9
2023-03-28T02:07:00.830Z,88.9
2023-03-28T02:08:00.787Z,88.9
2023-03-28T02:09:00.811Z,88.9
2023-03-28T02:10:01.001Z,88.9
2023-03-28T02:11:00.792Z,88.9
2023-03-28T02:12:00.791Z,88.6
2023-03-28T02:13:00.810Z,88.3
2023-03-28T02:14:00.798Z,88
2023-03-28T02:15:00.837Z,88
2023-03-28T02:16:00.996Z,87.7
2023-03-28T02:17:00.805Z,87.7
2023-03-28T02:18:00.823Z,87.7
2023-03-28T02:19:00.838Z,87.7
2023-03-28T02:20:00.901Z,87.7
2023-03-28T02:21:00.809Z,87.4
2023-03-28T02:22:00.833Z,87.1
2023-03-28T02:23:00.812Z,87.4
2023-03-28T02:24:00.831Z,87.4
2023-03-28T02:25:00.832Z,87.1
2023-03-28T02:26:01.114Z,87.1
2023-03-28T02:27:00.836Z,87.1
2023-03-28T02:28:00.817Z,87.4
2023-03-28T02:29:00.852Z,87.4
2023-03-28T02:30:00.856Z,87.4
2023-03-28T02:31:00.835Z,87.1
2023-03-28T02:32:00.895Z,87.4
2023-03-28T02:33:00.935Z,86.8
2023-03-28T02:34:00.846Z,87.1
2023-03-28T02:35:00.858Z,87
2023-03-28T02:36:01.103Z,87.4
2023-03-28T02:37:00.852Z,87.7
2023-03-28T02:38:00.844Z,87.6
2023-03-28T02:39:00.864Z,87.6
2023-03-28T02:40:00.862Z,87.6
2023-03-28T02:41:00.866Z,87.6
2023-03-28T02:42:00.843Z,87.7
2023-03-28T02:43:00.835Z,87.5
2023-03-28T02:44:00.866Z,87.6
2023-03-28T02:45:00.838Z,87.7
2023-03-28T02:46:01.063Z,87.6
2023-03-28T02:47:01.475Z,87.7
2023-03-28T02:48:00.893Z,87.7
2023-03-28T02:49:00.857Z,87.7
2023-03-28T02:50:00.873Z,87.7
2023-03-28T02:51:00.842Z,87.5
2023-03-28T02:52:00.868Z,87.5
2023-03-28T02:53:00.849Z,87.7
2023-03-28T02:54:00.869Z,87.9
2023-03-28T02:55:00.859Z,87.6
2023-03-28T02:56:01.027Z,87.9
2023-03-28T02:57:00.892Z,88.2
2023-03-28T02:58:00.878Z,88.5
2023-03-28T02:59:00.852Z,88.9
2023-03-28T03:00:00.916Z,88.8
2023-03-28T03:01:00.890Z,88.8
2023-03-28T03:02:00.874Z,88.8
2023-03-28T03:03:00.906Z,88.8
2023-03-28T03:04:00.933Z,88.9
2023-03-28T03:05:00.856Z,88.8
2023-03-28T03:06:01.023Z,88.8
2023-03-28T03:07:00.880Z,88.8
2023-03-28T03:08:00.879Z,89.1
2023-03-28T03:09:00.880Z,88.8
2023-03-28T03:10:00.895Z,88.8
2023-03-28T03:11:00.885Z,89.3
2023-03-28T03:12:00.862Z,89.5
2023-03-28T03:13:00.884Z,89
2023-03-28T03:14:00.868Z,89.5
2023-03-28T03:15:00.874Z,89.2
2023-03-28T03:16:01.249Z,89.4
2023-03-28T03:17:00.911Z,89.1
2023-03-28T03:18:00.961Z,89.4
2023-03-28T03:19:00.879Z,89.2
2023-03-28T03:20:00.897Z,89.1
2023-03-28T03:21:00.891Z,89.1
2023-03-28T03:22:00.912Z,88.9
2023-03-28T03:23:00.897Z,89.2
2023-03-28T03:24:00.876Z,88.8
2023-03-28T03:25:00.890Z,88.2
2023-03-28T03:26:01.267Z,88.2
2023-03-28T03:27:00.913Z,88
2023-03-28T03:28:00.895Z,87.9
2023-03-28T03:29:00.934Z,87.9
2023-03-28T03:30:00.893Z,87.6
2023-03-28T03:31:00.902Z,87.6
2023-03-28T03:32:00.882Z,87.6
2023-03-28T03:33:00.946Z,87.1
2023-03-28T03:34:00.889Z,87.6
2023-03-28T03:35:00.892Z,87.3
2023-03-28T03:36:01.155Z,87
2023-03-28T03:37:00.915Z,87
2023-03-28T03:38:00.909Z,87.1
2023-03-28T03:39:00.892Z,87
2023-03-28T03:40:00.917Z,87.3
2023-03-28T03:41:00.888Z,87
2023-03-28T03:42:00.913Z,87
2023-03-28T03:43:00.930Z,87
2023-03-28T03:44:00.922Z,87
2023-03-28T03:45:00.897Z,87
2023-03-28T03:46:01.326Z,86.8
2023-03-28T03:47:00.902Z,87
2023-03-28T03:48:00.974Z,86.9
2023-03-28T03:49:00.899Z,87
2023-03-28T03:50:00.909Z,87
2023-03-28T03:51:00.920Z,87
2023-03-28T03:52:00.941Z,86.9
2023-03-28T03:53:00.938Z,86.7
2023-03-28T03:54:00.907Z,86.9
2023-03-28T03:55:00.903Z,86.9
2023-03-28T03:56:01.175Z,86.9
2023-03-28T03:57:00.937Z,86.9
2023-03-28T03:58:00.929Z,86.9
2023-03-28T03:59:00.903Z,86.9
2023-03-28T04:00:01.030Z,87.2
2023-03-28T04:01:00.929Z,87.2
2023-03-28T04:02:00.927Z,87.5
2023-03-28T04:03:00.971Z,87.3
2023-03-28T04:04:00.925Z,87.3
2023-03-28T04:05:00.943Z,87.5
2023-03-28T04:06:01.055Z,87.5
2023-03-28T04:07:00.923Z,87.5
2023-03-28T04:08:00.940Z,87.5
2023-03-28T04:09:00.939Z,87.5
2023-03-28T04:10:00.957Z,87.5
2023-03-28T04:11:00.922Z,87.5
2023-03-28T04:12:00.919Z,87.5
2023-03-28T04:13:00.950Z,87.3
2023-03-28T04:14:00.926Z,87.5
2023-03-28T04:15:00.940Z,87.5
2023-03-28T04:16:01.145Z,87.5
2023-03-28T04:17:00.932Z,87.3
2023-03-28T04:18:03.416Z,87.2
2023-03-28T04:19:00.933Z,87.1
2023-03-28T04:20:00.967Z,87
2023-03-28T04:21:00.935Z,87.2
2023-03-28T04:22:00.937Z,87.2
2023-03-28T04:23:01.029Z,87.2
2023-03-28T04:24:00.951Z,86.7
2023-03-28T04:25:00.962Z,86.8
2023-03-28T04:26:01.125Z,86.9
2023-03-28T04:27:00.939Z,86.8
2023-03-28T04:28:00.963Z,86.8
2023-03-28T04:29:00.944Z,86.7
2023-03-28T04:30:00.964Z,86.8
2023-03-28T04:31:00.999Z,86.8
2023-03-28T04:32:00.970Z,86.8
2023-03-28T04:33:01.011Z,86.8
2023-03-28T04:34:00.956Z,87.4
2023-03-28T04:35:00.962Z,87.4
2023-03-28T04:36:01.247Z,87.4
2023-03-28T04:37:00.949Z,87.4
2023-03-28T04:38:00.972Z,87.1
2023-03-28T04:39:00.949Z,87.1
2023-03-28T04:40:00.988Z,86.6
2023-03-28T04:41:00.990Z,86.6
2023-03-28T04:42:01.019Z,86.8
2023-03-28T04:43:00.979Z,86.8
2023-03-28T04:44:00.996Z,86.6
2023-03-28T04:45:00.958Z,86.6
2023-03-28T04:46:01.107Z,86.8
2023-03-28T04:47:00.965Z,86.6
2023-03-28T04:48:00.997Z,86.9
2023-03-28T04:49:00.974Z,86.8
2023-03-28T04:50:00.992Z,86.8
2023-03-28T04:51:00.994Z,86.6
2023-03-28T04:52:00.965Z,86.8
2023-03-28T04:53:00.966Z,86.8
2023-03-28T04:54:00.994Z,86.7
2023-03-28T04:55:00.989Z,86.8
2023-03-28T04:56:01.257Z,86.9
2023-03-28T04:57:01.018Z,87
2023-03-28T04:58:01.010Z,86.8
2023-03-28T04:59:00.991Z,86.7
2023-03-28T05:00:01.016Z,87
2023-03-28T05:01:01.282Z,87.1
2023-03-28T05:02:00.975Z,87.1
2023-03-28T05:03:01.097Z,87.3
2023-03-28T05:04:00.993Z,87.1
2023-03-28T05:05:00.981Z,87.6
2023-03-28T05:06:00.996Z,87.6
2023-03-28T05:07:00.980Z,87.6
2023-03-28T05:08:01.000Z,87.9
2023-03-28T05:09:01.003Z,87.9
2023-03-28T05:10:01.016Z,87.7
2023-03-28T05:11:01.323Z,88.2
2023-03-28T05:12:00.985Z,88.2
2023-03-28T05:13:01.004Z,88
2023-03-28T05:14:00.996Z,87.7
2023-03-28T05:15:00.998Z,87.9
2023-03-28T05:16:00.992Z,88.2
2023-03-28T05:17:01.005Z,88.2
2023-03-28T05:18:01.015Z,88.2
2023-03-28T05:19:01.008Z,88.5
2023-03-28T05:20:01.057Z,88.2
2023-03-28T05:21:01.141Z,88.5
2023-03-28T05:22:00.993Z,88.5
2023-03-28T05:23:01.007Z,88.5
2023-03-28T05:24:01.010Z,88.5
2023-03-28T05:25:01.022Z,88.5
2023-03-28T05:26:00.998Z,88.6
2023-03-28T05:27:01.000Z,88.8
2023-03-28T05:28:01.013Z,88.8
2023-03-28T05:29:01.001Z,88.9
2023-03-28T05:30:01.056Z,88.8
2023-03-28T05:31:01.306Z,89
2023-03-28T05:32:01.068Z,89.1
2023-03-28T05:33:01.097Z,89.4
2023-03-28T05:34:01.019Z,89.4
2023-03-28T05:35:01.016Z,89.4
2023-03-28T05:36:01.031Z,89.4
2023-03-28T05:37:01.012Z,89.7
2023-03-28T05:38:01.035Z,89.5
2023-03-28T05:39:01.011Z,89.7
2023-03-28T05:40:01.034Z,89.7
2023-03-28T05:41:01.310Z,89.7
2023-03-28T05:42:01.011Z,89.7
2023-03-28T05:43:01.031Z,89.5
2023-03-28T05:44:01.062Z,89.5
2023-03-28T05:45:01.191Z,89.5
2023-03-28T05:46:01.183Z,90
2023-03-28T05:47:01.273Z,89.8
2023-03-28T05:48:01.086Z,90
2023-03-28T05:49:01.123Z,90.3
2023-03-28T05:50:01.138Z,90.1
2023-03-28T05:51:01.459Z,90.3
2023-03-28T05:52:01.072Z,90.3
2023-03-28T05:53:01.130Z,90.6
2023-03-28T05:54:01.121Z,90.6
2023-03-28T05:55:01.128Z,90.9
2023-03-28T05:56:01.108Z,91
2023-03-28T05:57:01.304Z,91
2023-03-28T05:58:01.185Z,91
2023-03-28T05:59:01.139Z,91
2023-03-28T06:00:01.325Z,90.7
2023-03-28T06:01:01.380Z,91
2023-03-28T06:02:01.232Z,90.8
2023-03-28T06:03:01.158Z,91
2023-03-28T06:04:01.169Z,91
2023-03-28T06:05:01.297Z,90.8
2023-03-28T06:06:01.177Z,91
2023-03-28T06:07:03.060Z,91.3
2023-03-28T06:08:01.189Z,91.1
2023-03-28T06:09:01.064Z,91.3
2023-03-28T06:10:01.088Z,91.3
2023-03-28T06:11:01.491Z,91.3
2023-03-28T06:12:01.065Z,91
2023-03-28T06:13:01.095Z,91.1
2023-03-28T06:14:01.082Z,91.1
2023-03-28T06:15:01.112Z,91.1
2023-03-28T06:16:01.062Z,91.4
2023-03-28T06:17:01.103Z,91.7
2023-03-28T06:18:01.086Z,91.7
2023-03-28T06:19:14.302Z,92
2023-03-28T06:20:01.109Z,92
2023-03-28T06:21:01.436Z,92.4
2023-03-28T06:22:01.621Z,92.4
2023-03-28T06:23:01.061Z,92.1
2023-03-28T06:24:01.081Z,91.6
2023-03-28T06:25:01.072Z,91.8
2023-03-28T06:26:01.093Z,91.5
2023-03-28T06:27:01.092Z,91.2
2023-03-28T06:28:01.088Z,91.2
2023-03-28T06:29:01.100Z,91.2
2023-03-28T06:30:01.099Z,91.2
2023-03-28T06:31:01.263Z,91.2
2023-03-28T06:32:01.062Z,91
2023-03-28T06:33:01.096Z,91
2023-03-28T06:34:01.073Z,90.8
2023-03-28T06:35:01.097Z,90.6
2023-03-28T06:36:01.143Z,90.6
2023-03-28T06:37:01.063Z,91
2023-03-28T06:38:01.104Z,90.7
2023-03-28T06:39:01.064Z,90.7
2023-03-28T06:40:01.112Z,90.7
2023-03-28T06:41:01.298Z,90.5
2023-03-28T06:42:01.042Z,90.1
2023-03-28T06:43:01.013Z,90.1
2023-03-28T06:44:00.990Z,89.9
2023-03-28T06:45:00.930Z,89.5
2023-03-28T06:46:00.939Z,89.5
2023-03-28T06:47:00.881Z,89.4
2023-03-28T06:48:00.975Z,89.8
2023-03-28T06:49:00.818Z,90.2
2023-03-28T06:50:00.798Z,89.9
2023-03-28T06:51:00.967Z,89.4
2023-03-28T06:52:00.720Z,89.6
2023-03-28T06:53:00.697Z,89.6
2023-03-28T06:54:00.683Z,89.6
2023-03-28T06:55:00.698Z,89.6
2023-03-28T06:56:00.644Z,89.6
2023-03-28T06:57:01.376Z,89.6
2023-03-28T06:58:00.572Z,89.6
2023-03-28T06:59:00.553Z,89.3
2023-03-28T07:00:00.584Z,89.5
2023-03-28T07:01:00.753Z,89.7
2023-03-28T07:02:00.644Z,89.7
2023-03-28T07:03:00.661Z,89.4
2023-03-28T07:04:00.765Z,89.4
2023-03-28T07:05:00.585Z,88.9
2023-03-28T07:06:00.575Z,89.1
2023-03-28T07:07:00.558Z,88.6
2023-03-28T07:08:00.564Z,88.5
2023-03-28T07:09:00.569Z,88.5
2023-03-28T07:10:00.592Z,88.5
2023-03-28T07:11:00.806Z,88.5
2023-03-28T07:12:00.591Z,87.9
2023-03-28T07:13:00.589Z,87.9
2023-03-28T07:14:00.605Z,87.9
2023-03-28T07:15:00.594Z,87.9
2023-03-28T07:16:00.568Z,87.9
2023-03-28T07:17:00.611Z,87.9
2023-03-28T07:18:00.598Z,87.7
2023-03-28T07:19:00.577Z,87.3
2023-03-28T07:20:00.601Z,87.2
2023-03-28T07:21:04.260Z,87.3
2023-03-28T07:22:00.598Z,86.8
2023-03-28T07:23:00.596Z,86.8
2023-03-28T07:24:00.596Z,86.8
2023-03-28T07:25:00.611Z,86.8
2023-03-28T07:26:00.586Z,86.8
2023-03-28T07:27:12.267Z,86.3
2023-03-28T07:28:00.598Z,86.2
2023-03-28T07:29:00.588Z,86.2
2023-03-28T07:30:00.615Z,85.6
2023-03-28T07:31:00.712Z,85.3
2023-03-28T07:32:00.718Z,85
2023-03-28T07:33:12.913Z,83.8
2023-03-28T07:34:00.628Z,84.1
2023-03-28T07:35:00.622Z,83.5
2023-03-28T07:36:00.639Z,83
2023-03-28T07:37:00.611Z,83
2023-03-28T07:38:00.644Z,83.2
2023-03-28T07:39:00.605Z,83.2
2023-03-28T07:40:00.643Z,82.6
2023-03-28T07:41:01.012Z,82.6
2023-03-28T07:42:00.604Z,82
2023-03-28T07:43:00.618Z,82.3
2023-03-28T07:44:00.618Z,82.4
2023-03-28T07:45:00.623Z,81.7
2023-03-28T07:46:00.627Z,81.4
2023-03-28T07:47:00.611Z,80.8
2023-03-28T07:48:00.636Z,80.8
2023-03-28T07:49:00.601Z,80.8
2023-03-28T07:50:00.619Z,79.9
2023-03-28T07:51:00.756Z,79.6
2023-03-28T07:52:00.604Z,79.4
2023-03-28T07:53:00.623Z,79.6
2023-03-28T07:54:00.607Z,79.6
2023-03-28T07:55:00.637Z,79
2023-03-28T07:56:00.608Z,78.7
2023-03-28T07:57:00.676Z,77.8
2023-03-28T07:58:00.664Z,77.8
2023-03-28T07:59:00.610Z,76.5
2023-03-28T08:00:00.642Z,74.1
2023-03-28T08:01:00.836Z,75
2023-03-28T08:02:00.612Z,75.8
2023-03-28T08:03:00.775Z,74.1
2023-03-28T08:04:00.760Z,74.4
2023-03-28T08:05:00.692Z,73.5
2023-03-28T08:06:00.669Z,72.9
2023-03-28T08:07:00.663Z,73.2
2023-03-28T08:08:00.662Z,73.5
2023-03-28T08:09:00.621Z,74.1
2023-03-28T08:10:00.632Z,74.8
2023-03-28T08:11:00.799Z,73.4
2023-03-28T08:12:00.639Z,72.3
2023-03-28T08:13:00.662Z,72.3
2023-03-28T08:14:00.637Z,72.8
2023-03-28T08:15:00.649Z,72.9
2023-03-28T08:16:00.676Z,72
2023-03-28T08:17:00.640Z,72.6
2023-03-28T08:18:00.664Z,72.3
2023-03-28T08:19:10.581Z,71.4
2023-03-28T08:20:00.630Z,70.5
2023-03-28T08:21:00.803Z,70.5
2023-03-28T08:22:00.634Z,71.7
2023-03-28T08:23:00.657Z,72.3
2023-03-28T08:24:00.650Z,73
2023-03-28T08:25:00.641Z,72.4
2023-03-28T08:26:00.657Z,72.6
2023-03-28T08:27:00.656Z,72.4
2023-03-28T08:28:00.664Z,72
2023-03-28T08:29:00.642Z,71
2023-03-28T08:30:00.683Z,71.5
2023-03-28T08:31:00.933Z,69.8
2023-03-28T08:32:00.668Z,70.6
2023-03-28T08:33:00.683Z,69.9
2023-03-28T08:34:00.645Z,70.9
2023-03-28T08:35:00.716Z,71.2
2023-03-28T08:36:00.716Z,70.5
2023-03-28T08:37:00.658Z,70.5
2023-03-28T08:38:00.654Z,70.5
2023-03-28T08:39:00.854Z,71
2023-03-28T08:40:00.679Z,69.9
2023-03-28T08:41:00.813Z,70.6
2023-03-28T08:42:00.668Z,70.9
2023-03-28T08:43:00.674Z,72.1
2023-03-28T08:44:00.660Z,70.6
2023-03-28T08:45:00.682Z,71.9
2023-03-28T08:46:00.655Z,71.2
2023-03-28T08:47:00.676Z,72.2
2023-03-28T08:48:00.759Z,71.9
2023-03-28T08:49:00.667Z,69.4
2023-03-28T08:50:00.684Z,68.5
2023-03-28T08:51:00.806Z,68.8
2023-03-28T08:52:00.674Z,69.1
2023-03-28T08:53:00.692Z,69.1
2023-03-28T08:54:00.675Z,68.8
2023-03-28T08:55:00.692Z,67.6
2023-03-28T08:56:00.685Z,66.7
2023-03-28T08:57:00.684Z,65
2023-03-28T08:58:00.676Z,66.4
2023-03-28T08:59:00.668Z,64.4
2023-03-28T09:00:00.693Z,64.5
2023-03-28T09:01:01.015Z,64.6
2023-03-28T09:02:00.774Z,65.8
2023-03-28T09:03:00.806Z,64.6
2023-03-28T09:04:00.819Z,62.4
2023-03-28T09:05:17.885Z,62
2023-03-28T09:06:00.918Z,64.6
2023-03-28T09:07:00.678Z,64.3
2023-03-28T09:08:00.710Z,61.5
2023-03-28T09:09:00.693Z,62
2023-03-28T09:10:00.698Z,60.2
2023-03-28T09:11:00.887Z,60.2
2023-03-28T09:12:00.685Z,61.2
2023-03-28T09:13:00.693Z,60.7
2023-03-28T09:14:00.692Z,60.9
2023-03-28T09:15:00.708Z,60.5
2023-03-28T09:16:00.737Z,60.8
2023-03-28T09:17:00.693Z,60.8
2023-03-28T09:18:00.728Z,60.8
2023-03-28T09:19:00.733Z,59.9
2023-03-28T09:20:00.722Z,59.3
2023-03-28T09:21:00.994Z,60.2
2023-03-28T09:23:00.722Z,61.8
2023-03-28T09:24:00.710Z,62.1
2023-03-28T09:25:00.716Z,62.7
2023-03-28T09:26:01.765Z,61.5
2023-03-28T09:27:00.698Z,60.3
2023-03-28T09:28:00.700Z,58.4
2023-03-28T09:29:00.785Z,59
2023-03-28T09:30:00.710Z,58.7
2023-03-28T09:31:01.077Z,57.8
2023-03-28T09:32:00.718Z,55.9
2023-03-28T09:33:00.789Z,55.3
2023-03-28T09:34:00.730Z,55.9
2023-03-28T09:35:00.710Z,54.9
2023-03-28T09:36:00.738Z,55.5
2023-03-28T09:37:00.724Z,55.8
2023-03-28T09:38:00.733Z,55.5
2023-03-28T09:39:00.728Z,56.4
2023-03-28T09:40:00.725Z,57
2023-03-28T09:41:00.813Z,56.7
2023-03-28T09:42:00.738Z,58.9
2023-03-28T09:43:00.729Z,60.1
2023-03-28T09:44:00.742Z,59.5
2023-03-28T09:45:00.727Z,60.1
2023-03-28T09:46:00.765Z,59.2
2023-03-28T09:47:00.762Z,59.5
2023-03-28T09:48:00.852Z,59.5
2023-03-28T09:49:00.804Z,59.5
2023-03-28T09:50:11.899Z,60.8
2023-03-28T09:51:00.956Z,59.5
2023-03-28T09:52:00.742Z,58.9
2023-03-28T09:53:00.752Z,59.2
2023-03-28T09:54:01.302Z,59.2
2023-03-28T09:55:00.740Z,56.7
2023-03-28T09:56:04.299Z,56.1
2023-03-28T09:57:00.792Z,55.8
2023-03-28T09:58:00.737Z,54.2
2023-03-28T09:59:00.739Z,54.2
2023-03-28T10:00:00.811Z,54.5
2023-03-28T10:01:01.080Z,52.7
2023-03-28T10:02:00.843Z,53.9
2023-03-28T10:03:00.822Z,53.3
2023-03-28T10:04:00.817Z,52.7
2023-03-28T10:05:01.925Z,52.7
2023-03-28T10:06:00.755Z,53.9
2023-03-28T10:07:00.802Z,54.5
2023-03-28T10:08:00.754Z,53.3
2023-03-28T10:09:00.742Z,51.1
2023-03-28T10:10:00.742Z,50.8
2023-03-28T10:11:01.058Z,53.3
2023-03-28T10:12:00.773Z,54.2
2023-03-28T10:13:00.807Z,54.6
2023-03-28T10:14:00.746Z,52.7
2023-03-28T10:15:00.751Z,52.1
2023-03-28T10:16:00.850Z,54
2023-03-28T10:18:00.773Z,50.9
2023-03-28T10:19:00.766Z,54
2023-03-28T10:20:00.848Z,52.1
2023-03-28T10:21:00.916Z,53.4
2023-03-28T10:22:00.828Z,52.2
2023-03-28T10:23:02.674Z,52.8
2023-03-28T10:24:00.867Z,50.9
2023-03-28T10:25:00.836Z,51.9
2023-03-28T10:26:00.838Z,52.2
2023-03-28T10:27:00.854Z,52.2
2023-03-28T10:28:00.860Z,52.8
2023-03-28T10:29:02.955Z,51.9
2023-03-28T10:30:00.849Z,50.3
2023-03-28T10:31:01.233Z,50.6
2023-03-28T10:32:00.865Z,49.4
2023-03-28T10:33:00.935Z,49.7
2023-03-28T10:34:00.902Z,50.3
2023-03-28T10:35:01.087Z,49.7
2023-03-28T10:36:00.953Z,49.4
2023-03-28T10:37:00.868Z,52.2
2023-03-28T10:38:00.810Z,51
2023-03-28T10:39:00.901Z,49.1
2023-03-28T10:40:01.031Z,52.2
2023-03-28T10:41:01.184Z,48.5
2023-03-28T10:42:00.983Z,48.5
2023-03-28T10:43:00.962Z,49.1
2023-03-28T10:44:00.928Z,49.7
2023-03-28T10:45:00.905Z,50.7
2023-03-28T10:46:00.909Z,50.1
2023-03-28T10:47:00.837Z,48.2
2023-03-28T10:48:00.931Z,46
2023-03-28T10:49:00.813Z,49.4
2023-03-28T10:50:00.836Z,49.1
2023-03-28T10:51:01.034Z,49.1
2023-03-28T10:52:00.797Z,48.2
2023-03-28T10:53:00.821Z,49.4
2023-03-28T10:54:00.796Z,50.6
2023-03-28T10:55:00.826Z,48.8
2023-03-28T10:56:00.840Z,48.5
2023-03-28T10:57:00.804Z,49.1
2023-03-28T10:58:00.826Z,49.8
2023-03-28T10:59:00.819Z,49.2
2023-03-28T11:00:00.801Z,49.2
2023-03-28T11:01:01.075Z,48.5
2023-03-28T11:02:00.931Z,48.9
2023-03-28T11:03:00.891Z,46.7
2023-03-28T11:04:00.972Z,45.1
2023-03-28T11:05:00.805Z,46.1
2023-03-28T11:06:09.522Z,46
2023-03-28T11:07:00.831Z,47.6
2023-03-28T11:08:00.816Z,44.8
2023-03-28T11:09:00.841Z,46.1
2023-03-28T11:10:00.826Z,46.7
2023-03-28T11:11:01.015Z,46.7
2023-03-28T11:12:00.841Z,45.4
2023-03-28T11:13:02.762Z,48
2023-03-28T11:14:00.853Z,48.9
2023-03-28T11:15:00.858Z,49.2
2023-03-28T11:16:00.844Z,50.5
2023-03-28T11:17:00.835Z,49.5
2023-03-28T11:18:00.899Z,48.6
2023-03-28T11:19:00.840Z,48
2023-03-28T11:20:00.814Z,48
2023-03-28T11:21:01.085Z,48
2023-03-28T11:22:00.822Z,47.7
2023-03-28T11:23:06.225Z,47.4
2023-03-28T11:24:01.160Z,47.4
2023-03-28T11:25:00.829Z,48.6
2023-03-28T11:26:00.846Z,49.3
2023-03-28T11:28:00.840Z,45.8
2023-03-28T11:29:00.844Z,46.8
2023-03-28T11:30:00.848Z,46.8
2023-03-28T11:31:01.045Z,44.9
2023-03-28T11:32:00.864Z,46.1
2023-03-28T11:33:00.917Z,46.1
2023-03-28T11:34:00.831Z,46.1
2023-03-28T11:35:00.844Z,46.1
2023-03-28T11:36:00.937Z,47.4
2023-03-28T11:37:00.846Z,43.6
2023-03-28T11:38:00.848Z,43.9
2023-03-28T11:39:00.848Z,43
2023-03-28T11:40:00.837Z,44.8
2023-03-28T11:41:01.039Z,45.2
2023-03-28T11:42:00.837Z,46.1
2023-03-28T11:43:00.879Z,48
2023-03-28T11:44:00.872Z,46.1
2023-03-28T11:45:00.853Z,45.5
2023-03-28T11:46:00.919Z,45.8
2023-03-28T11:47:00.853Z,46.4
2023-03-28T11:48:00.902Z,47.1
2023-03-28T11:49:00.851Z,47.7
2023-03-28T11:50:00.864Z,46.5
2023-03-28T11:51:00.993Z,43.6
2023-03-28T11:52:00.851Z,44.9
2023-03-28T11:53:00.873Z,46.1
2023-03-28T11:54:00.859Z,44.6
2023-03-28T11:55:00.872Z,45.2
2023-03-28T11:56:00.995Z,46.8
2023-03-28T11:57:00.888Z,47.4
2023-03-28T11:58:00.874Z,46.2
2023-03-28T11:59:00.889Z,46.8
2023-03-28T12:00:00.869Z,47.8
2023-03-28T12:01:01.154Z,47.5
2023-03-28T12:02:00.919Z,43.1
2023-03-28T12:03:01.108Z,42.8
2023-03-28T12:04:00.998Z,41.8
2023-03-28T12:05:00.877Z,42.8
2023-03-28T12:06:08.359Z,44.3
2023-03-28T12:07:03.139Z,45
2023-03-28T12:08:00.897Z,45.3
2023-03-28T12:09:00.862Z,45.6
2023-03-28T12:10:00.873Z,43.7
2023-03-28T12:11:01.055Z,43.7
2023-03-28T12:12:00.888Z,43.4
2023-03-28T12:13:00.893Z,44
2023-03-28T12:14:11.644Z,45
2023-03-28T12:15:00.897Z,43.7
2023-03-28T12:16:00.886Z,42.5
2023-03-28T12:17:00.907Z,43.1
2023-03-28T12:18:01.015Z,42.8
2023-03-28T12:19:00.869Z,42.5
2023-03-28T12:20:00.876Z,41.8
2023-03-28T12:21:01.098Z,42.5
2023-03-28T12:22:00.903Z,44.3
2023-03-28T12:23:00.897Z,42.1
2023-03-28T12:24:00.890Z,44.3
2023-03-28T12:25:00.901Z,44.3
2023-03-28T12:26:00.891Z,45.6
2023-03-28T12:27:00.887Z,46.8
2023-03-28T12:28:00.908Z,46.2
2023-03-28T12:29:00.912Z,44.7
2023-03-28T12:30:00.885Z,44.3
2023-03-28T12:31:01.193Z,45.3
2023-03-28T12:32:00.890Z,43.7
2023-03-28T12:33:00.964Z,45.3
2023-03-28T12:34:00.888Z,47.2
2023-03-28T12:35:00.893Z,47.5
2023-03-28T12:36:00.909Z,45.6
2023-03-28T12:37:00.892Z,46.9
2023-03-28T12:38:00.925Z,45.9
2023-03-28T12:39:00.896Z,46.3
2023-03-28T12:40:00.913Z,46.9
2023-03-28T12:41:01.195Z,47.5
2023-03-28T12:42:00.861Z,46.6
2023-03-28T12:43:00.853Z,45.6
2023-03-28T12:44:00.831Z,46.9
2023-03-28T12:45:00.792Z,44.4
2023-03-28T12:46:00.806Z,43.7
2023-03-28T12:47:00.708Z,43.8
2023-03-28T12:48:00.735Z,45
2023-03-28T12:49:00.664Z,44.7
2023-03-28T12:50:00.646Z,44.4
2023-03-28T12:51:00.773Z,44.4
2023-03-28T12:52:00.585Z,44.4
2023-03-28T12:53:00.558Z,43.4
2023-03-28T12:54:00.549Z,41.8
2023-03-28T12:55:01.836Z,43.1
2023-03-28T12:56:00.885Z,44.3
2023-03-28T12:57:00.840Z,45
2023-03-28T12:58:00.561Z,44.3
2023-03-28T12:59:00.568Z,44.9
2023-03-28T13:00:00.574Z,46.2
2023-03-28T13:01:00.736Z,46.2
2023-03-28T13:02:00.614Z,47.5
2023-03-28T13:03:00.645Z,46.2
2023-03-28T13:04:00.628Z,46.8
2023-03-28T13:05:00.570Z,46.8
2023-03-28T13:06:00.752Z,48.7
2023-03-28T13:07:00.576Z,47.5
2023-03-28T13:08:00.572Z,47.8
2023-03-28T13:09:00.558Z,48.1
2023-03-28T13:10:00.615Z,47.5
2023-03-28T13:11:00.728Z,47.5
2023-03-28T13:12:00.596Z,49.4
2023-03-28T13:13:00.569Z,47.8
2023-03-28T13:14:00.612Z,45.3
2023-03-28T13:15:00.590Z,46.6
2023-03-28T13:16:00.667Z,47.8
2023-03-28T13:17:00.579Z,45.6
2023-03-28T13:18:00.607Z,46.3
2023-03-28T13:19:00.572Z,45.3
2023-03-28T13:20:00.624Z,45.6
2023-03-28T13:21:00.780Z,44.4
2023-03-28T13:22:00.597Z,44.1
2023-03-28T13:23:00.584Z,42.8
2023-03-28T13:24:00.585Z,45.6
2023-03-28T13:25:00.830Z,46.9
2023-03-28T13:26:00.840Z,44.7
2023-03-28T13:27:00.601Z,45